sensor_id;sensor_type;location;lat;lon;timestamp;temperature;humidity
22337;DHT22;14992;50.844;4.418;2023-04-19T00:01:01;10.80;99.90
22337;DHT22;14992;50.844;4.418;2023-04-19T00:03:32;10.70;99.90
22337;DHT22;14992;50.844;4.418;2023-04-19T00:06:01;10.60;99.90
22337;DHT22;14992;50.844;4.418;2023-04-19T00:08:31;10.60;99.90
22337;DHT22;14992;50.844;4.418;2023-04-19T00:10:59;10.60;99.90
22337;DHT22;14992;50.844;4.418;2023-04-19T00:13:28;10.60;99.90
22337;DHT22;14992;50.844;4.418;2023-04-19T00:15:57;10.50;99.90
22337;DHT22;14992;50.844;4.418;2023-04-19T00:18:26;10.50;99.90
22337;DHT22;14992;50.844;4.418;2023-04-19T00:20:56;10.50;99.90
22337;DHT22;14992;50.844;4.418;2023-04-19T00:23:25;10.50;99.90
22337;DHT22;14992;50.844;4.418;2023-04-19T00:25:54;10.50;99.90
22337;DHT22;14992;50.844;4.418;2023-04-19T00:28:23;10.50;99.90
22337;DHT22;14992;50.844;4.418;2023-04-19T00:30:52;10.40;99.90
22337;DHT22;14992;50.844;4.418;2023-04-19T00:33:22;10.40;99.90
22337;DHT22;14992;50.844;4.418;2023-04-19T00:36:08;10.40;99.90
22337;DHT22;14992;50.844;4.418;2023-04-19T00:38:38;10.40;99.90
22337;DHT22;14992;50.844;4.418;2023-04-19T00:41:09;10.40;99.90
22337;DHT22;14992;50.844;4.418;2023-04-19T00:43:39;10.30;99.90
22337;DHT22;14992;50.844;4.418;2023-04-19T00:46:08;10.40;99.90
22337;DHT22;14992;50.844;4.418;2023-04-19T00:48:38;10.40;99.90
22337;DHT22;14992;50.844;4.418;2023-04-19T00:51:08;10.30;99.90
22337;DHT22;14992;50.844;4.418;2023-04-19T00:53:39;10.30;99.90
22337;DHT22;14992;50.844;4.418;2023-04-19T00:56:09;10.20;99.90
22337;DHT22;14992;50.844;4.418;2023-04-19T00:58:38;10.20;99.90
22337;DHT22;14992;50.844;4.418;2023-04-19T01:01:08;10.20;99.90
22337;DHT22;14992;50.844;4.418;2023-04-19T01:03:38;10.10;99.90
22337;DHT22;14992;50.844;4.418;2023-04-19T01:06:08;10.10;99.90
22337;DHT22;14992;50.844;4.418;2023-04-19T01:08:41;10.10;99.90
22337;DHT22;14992;50.844;4.418;2023-04-19T01:11:10;10.00;99.90
22337;DHT22;14992;50.844;4.418;2023-04-19T01:13:39;10.10;99.90
22337;DHT22;14992;50.844;4.418;2023-04-19T01:16:09;10.10;99.90
22337;DHT22;14992;50.844;4.418;2023-04-19T01:18:38;10.10;99.90
22337;DHT22;14992;50.844;4.418;2023-04-19T01:21:09;10.00;99.90
22337;DHT22;14992;50.844;4.418;2023-04-19T01:23:39;10.00;99.90
22337;DHT22;14992;50.844;4.418;2023-04-19T01:26:07;9.90;99.90
22337;DHT22;14992;50.844;4.418;2023-04-19T01:28:36;9.80;99.90
22337;DHT22;14992;50.844;4.418;2023-04-19T01:31:06;9.80;99.90
22337;DHT22;14992;50.844;4.418;2023-04-19T01:33:36;9.80;99.90
22337;DHT22;14992;50.844;4.418;2023-04-19T01:36:09;9.80;99.90
22337;DHT22;14992;50.844;4.418;2023-04-19T01:38:39;9.70;99.90
22337;DHT22;14992;50.844;4.418;2023-04-19T01:41:09;9.70;99.90
22337;DHT22;14992;50.844;4.418;2023-04-19T01:43:38;9.70;99.90
22337;DHT22;14992;50.844;4.418;2023-04-19T01:46:08;9.70;99.90
22337;DHT22;14992;50.844;4.418;2023-04-19T01:48:38;9.70;99.90
22337;DHT22;14992;50.844;4.418;2023-04-19T01:51:07;9.70;99.90
22337;DHT22;14992;50.844;4.418;2023-04-19T01:53:36;9.80;99.90
22337;DHT22;14992;50.844;4.418;2023-04-19T01:56:06;10.00;99.90
22337;DHT22;14992;50.844;4.418;2023-04-19T01:58:36;10.00;99.90
22337;DHT22;14992;50.844;4.418;2023-04-19T02:01:05;10.10;99.90
22337;DHT22;14992;50.844;4.418;2023-04-19T02:03:39;10.20;99.90
22337;DHT22;14992;50.844;4.418;2023-04-19T02:06:10;10.20;99.90
22337;DHT22;14992;50.844;4.418;2023-04-19T02:08:40;10.30;99.90
22337;DHT22;14992;50.844;4.418;2023-04-19T02:11:12;10.40;99.90
22337;DHT22;14992;50.844;4.418;2023-04-19T02:13:42;10.40;99.90
22337;DHT22;14992;50.844;4.418;2023-04-19T02:16:11;10.50;99.90
22337;DHT22;14992;50.844;4.418;2023-04-19T02:18:40;10.50;99.90
22337;DHT22;14992;50.844;4.418;2023-04-19T02:21:10;10.60;99.90
22337;DHT22;14992;50.844;4.418;2023-04-19T02:23:38;10.60;99.90
22337;DHT22;14992;50.844;4.418;2023-04-19T02:26:10;10.60;99.90
22337;DHT22;14992;50.844;4.418;2023-04-19T02:28:42;10.70;99.90
22337;DHT22;14992;50.844;4.418;2023-04-19T02:31:12;10.80;99.90
22337;DHT22;14992;50.844;4.418;2023-04-19T02:33:41;10.80;99.90
22337;DHT22;14992;50.844;4.418;2023-04-19T02:36:11;10.80;99.90
22337;DHT22;14992;50.844;4.418;2023-04-19T02:38:39;10.90;99.90
22337;DHT22;14992;50.844;4.418;2023-04-19T02:41:08;10.90;99.90
22337;DHT22;14992;50.844;4.418;2023-04-19T02:43:40;11.00;99.90
22337;DHT22;14992;50.844;4.418;2023-04-19T02:46:12;11.00;99.90
22337;DHT22;14992;50.844;4.418;2023-04-19T02:48:41;11.10;99.90
22337;DHT22;14992;50.844;4.418;2023-04-19T02:51:14;11.10;99.90
22337;DHT22;14992;50.844;4.418;2023-04-19T02:53:44;11.10;99.90
22337;DHT22;14992;50.844;4.418;2023-04-19T02:56:13;11.30;99.90
22337;DHT22;14992;50.844;4.418;2023-04-19T02:58:44;11.20;99.90
22337;DHT22;14992;50.844;4.418;2023-04-19T03:01:13;11.10;99.90
22337;DHT22;14992;50.844;4.418;2023-04-19T03:03:42;11.10;99.90
22337;DHT22;14992;50.844;4.418;2023-04-19T03:06:11;11.00;99.90
22337;DHT22;14992;50.844;4.418;2023-04-19T03:08:41;11.10;99.90
22337;DHT22;14992;50.844;4.418;2023-04-19T03:11:10;11.20;99.90
22337;DHT22;14992;50.844;4.418;2023-04-19T03:13:39;11.20;99.90
22337;DHT22;14992;50.844;4.418;2023-04-19T03:16:09;11.30;99.90
22337;DHT22;14992;50.844;4.418;2023-04-19T03:18:38;11.50;99.90
22337;DHT22;14992;50.844;4.418;2023-04-19T03:21:07;11.40;99.90
22337;DHT22;14992;50.844;4.418;2023-04-19T03:23:46;11.40;99.90
22337;DHT22;14992;50.844;4.418;2023-04-19T03:26:15;11.40;99.90
22337;DHT22;14992;50.844;4.418;2023-04-19T03:28:46;11.40;99.90
22337;DHT22;14992;50.844;4.418;2023-04-19T03:31:23;11.40;99.90
22337;DHT22;14992;50.844;4.418;2023-04-19T03:33:53;11.40;99.90
22337;DHT22;14992;50.844;4.418;2023-04-19T03:36:28;11.20;99.90
22337;DHT22;14992;50.844;4.418;2023-04-19T03:38:57;11.20;99.90
22337;DHT22;14992;50.844;4.418;2023-04-19T03:41:27;11.10;99.90
22337;DHT22;14992;50.844;4.418;2023-04-19T03:44:16;11.00;99.90
22337;DHT22;14992;50.844;4.418;2023-04-19T03:46:47;10.80;99.90
22337;DHT22;14992;50.844;4.418;2023-04-19T03:49:21;10.80;99.90
22337;DHT22;14992;50.844;4.418;2023-04-19T03:51:58;10.80;99.90
22337;DHT22;14992;50.844;4.418;2023-04-19T03:54:27;10.80;99.90
22337;DHT22;14992;50.844;4.418;2023-04-19T03:56:56;10.80;99.90
22337;DHT22;14992;50.844;4.418;2023-04-19T03:59:26;10.70;99.90
22337;DHT22;14992;50.844;4.418;2023-04-19T04:01:56;10.60;99.90
22337;DHT22;14992;50.844;4.418;2023-04-19T04:04:26;10.50;99.90
22337;DHT22;14992;50.844;4.418;2023-04-19T04:06:55;10.60;99.90
22337;DHT22;14992;50.844;4.418;2023-04-19T04:09:24;10.50;99.90
22337;DHT22;14992;50.844;4.418;2023-04-19T04:11:53;10.40;99.90
22337;DHT22;14992;50.844;4.418;2023-04-19T04:14:23;10.30;99.90
22337;DHT22;14992;50.844;4.418;2023-04-19T04:16:52;10.30;99.90
22337;DHT22;14992;50.844;4.418;2023-04-19T04:19:22;10.20;99.90
22337;DHT22;14992;50.844;4.418;2023-04-19T04:21:52;10.20;99.90
22337;DHT22;14992;50.844;4.418;2023-04-19T04:24:20;10.20;99.90
22337;DHT22;14992;50.844;4.418;2023-04-19T04:27:16;10.20;99.90
22337;DHT22;14992;50.844;4.418;2023-04-19T04:29:49;10.20;99.90
22337;DHT22;14992;50.844;4.418;2023-04-19T04:32:19;10.20;99.90
22337;DHT22;14992;50.844;4.418;2023-04-19T04:34:59;10.20;99.90
22337;DHT22;14992;50.844;4.418;2023-04-19T04:37:37;10.20;99.90
22337;DHT22;14992;50.844;4.418;2023-04-19T04:40:09;10.20;99.90
22337;DHT22;14992;50.844;4.418;2023-04-19T04:42:38;10.20;99.90
22337;DHT22;14992;50.844;4.418;2023-04-19T04:45:10;10.20;99.90
22337;DHT22;14992;50.844;4.418;2023-04-19T04:47:42;10.20;99.90
22337;DHT22;14992;50.844;4.418;2023-04-19T04:50:15;10.20;99.90
22337;DHT22;14992;50.844;4.418;2023-04-19T04:52:45;10.20;99.90
22337;DHT22;14992;50.844;4.418;2023-04-19T04:55:21;10.20;99.90
22337;DHT22;14992;50.844;4.418;2023-04-19T04:57:50;10.10;99.90
22337;DHT22;14992;50.844;4.418;2023-04-19T05:00:39;10.10;99.90
22337;DHT22;14992;50.844;4.418;2023-04-19T05:03:09;10.10;99.90
22337;DHT22;14992;50.844;4.418;2023-04-19T05:05:47;10.10;99.90
22337;DHT22;14992;50.844;4.418;2023-04-19T05:08:16;10.10;99.90
22337;DHT22;14992;50.844;4.418;2023-04-19T05:10:48;10.10;99.90
22337;DHT22;14992;50.844;4.418;2023-04-19T05:13:18;10.10;99.90
22337;DHT22;14992;50.844;4.418;2023-04-19T05:15:48;10.10;99.90
22337;DHT22;14992;50.844;4.418;2023-04-19T05:18:18;10.10;99.90
22337;DHT22;14992;50.844;4.418;2023-04-19T05:20:50;10.20;99.90
22337;DHT22;14992;50.844;4.418;2023-04-19T05:23:24;10.20;99.90
22337;DHT22;14992;50.844;4.418;2023-04-19T05:25:54;10.30;99.90
22337;DHT22;14992;50.844;4.418;2023-04-19T05:28:25;10.30;99.90
22337;DHT22;14992;50.844;4.418;2023-04-19T05:31:04;10.30;99.90
22337;DHT22;14992;50.844;4.418;2023-04-19T05:33:39;10.30;99.90
22337;DHT22;14992;50.844;4.418;2023-04-19T05:36:10;10.40;99.90
22337;DHT22;14992;50.844;4.418;2023-04-19T05:38:39;10.50;99.90
22337;DHT22;14992;50.844;4.418;2023-04-19T05:41:10;10.50;99.90
22337;DHT22;14992;50.844;4.418;2023-04-19T05:43:39;10.40;99.90
22337;DHT22;14992;50.844;4.418;2023-04-19T05:46:09;10.60;99.90
22337;DHT22;14992;50.844;4.418;2023-04-19T05:48:38;10.70;99.90
22337;DHT22;14992;50.844;4.418;2023-04-19T05:51:26;10.80;99.90
22337;DHT22;14992;50.844;4.418;2023-04-19T05:54:09;10.90;99.90
22337;DHT22;14992;50.844;4.418;2023-04-19T05:56:57;10.80;99.90
22337;DHT22;14992;50.844;4.418;2023-04-19T05:59:26;10.80;99.90
22337;DHT22;14992;50.844;4.418;2023-04-19T06:01:55;10.70;99.90
22337;DHT22;14992;50.844;4.418;2023-04-19T06:04:24;10.70;99.90
22337;DHT22;14992;50.844;4.418;2023-04-19T06:06:55;10.80;99.90
22337;DHT22;14992;50.844;4.418;2023-04-19T06:09:24;10.90;99.90
22337;DHT22;14992;50.844;4.418;2023-04-19T06:11:52;11.00;99.90
22337;DHT22;14992;50.844;4.418;2023-04-19T06:14:25;11.10;99.90
22337;DHT22;14992;50.844;4.418;2023-04-19T06:16:54;11.00;99.90
22337;DHT22;14992;50.844;4.418;2023-04-19T06:19:24;10.90;99.90
22337;DHT22;14992;50.844;4.418;2023-04-19T06:21:55;10.90;99.90
22337;DHT22;14992;50.844;4.418;2023-04-19T06:24:24;11.00;99.90
22337;DHT22;14992;50.844;4.418;2023-04-19T06:26:53;11.10;99.90
22337;DHT22;14992;50.844;4.418;2023-04-19T06:29:22;11.20;99.90
22337;DHT22;14992;50.844;4.418;2023-04-19T06:31:51;11.30;99.90
22337;DHT22;14992;50.844;4.418;2023-04-19T06:34:20;11.50;99.90
22337;DHT22;14992;50.844;4.418;2023-04-19T06:36:49;11.70;99.90
22337;DHT22;14992;50.844;4.418;2023-04-19T06:39:19;11.80;99.90
22337;DHT22;14992;50.844;4.418;2023-04-19T06:41:48;11.90;99.90
22337;DHT22;14992;50.844;4.418;2023-04-19T06:44:17;12.10;99.90
22337;DHT22;14992;50.844;4.418;2023-04-19T06:46:46;12.20;99.90
22337;DHT22;14992;50.844;4.418;2023-04-19T06:49:15;12.30;99.90
22337;DHT22;14992;50.844;4.418;2023-04-19T06:51:44;12.20;99.90
22337;DHT22;14992;50.844;4.418;2023-04-19T06:54:13;12.20;99.90
22337;DHT22;14992;50.844;4.418;2023-04-19T06:56:45;12.40;99.90
22337;DHT22;14992;50.844;4.418;2023-04-19T06:59:16;12.40;99.90
22337;DHT22;14992;50.844;4.418;2023-04-19T07:01:46;12.50;99.90
22337;DHT22;14992;50.844;4.418;2023-04-19T07:04:16;12.60;99.90
22337;DHT22;14992;50.844;4.418;2023-04-19T07:06:47;12.60;99.90
22337;DHT22;14992;50.844;4.418;2023-04-19T07:09:17;12.60;99.90
22337;DHT22;14992;50.844;4.418;2023-04-19T07:11:47;12.80;99.90
22337;DHT22;14992;50.844;4.418;2023-04-19T07:14:18;13.10;99.90
22337;DHT22;14992;50.844;4.418;2023-04-19T07:16:47;13.40;99.90
22337;DHT22;14992;50.844;4.418;2023-04-19T07:19:18;13.70;99.90
22337;DHT22;14992;50.844;4.418;2023-04-19T07:21:49;13.60;99.90
22337;DHT22;14992;50.844;4.418;2023-04-19T07:24:18;13.70;99.90
22337;DHT22;14992;50.844;4.418;2023-04-19T07:26:50;13.70;99.90
22337;DHT22;14992;50.844;4.418;2023-04-19T07:29:19;13.70;99.90
22337;DHT22;14992;50.844;4.418;2023-04-19T07:31:48;13.70;99.90
22337;DHT22;14992;50.844;4.418;2023-04-19T07:34:17;13.90;99.90
22337;DHT22;14992;50.844;4.418;2023-04-19T07:36:46;13.70;99.90
22337;DHT22;14992;50.844;4.418;2023-04-19T07:39:15;13.80;99.90
22337;DHT22;14992;50.844;4.418;2023-04-19T07:41:44;13.80;99.90
22337;DHT22;14992;50.844;4.418;2023-04-19T07:44:14;13.80;99.90
22337;DHT22;14992;50.844;4.418;2023-04-19T07:46:43;13.70;99.90
22337;DHT22;14992;50.844;4.418;2023-04-19T07:49:13;13.60;99.90
22337;DHT22;14992;50.844;4.418;2023-04-19T07:51:42;13.50;99.90
22337;DHT22;14992;50.844;4.418;2023-04-19T07:54:11;13.50;99.90
22337;DHT22;14992;50.844;4.418;2023-04-19T07:56:40;13.60;99.90
22337;DHT22;14992;50.844;4.418;2023-04-19T07:59:09;13.60;99.90
22337;DHT22;14992;50.844;4.418;2023-04-19T08:01:40;13.50;99.90
22337;DHT22;14992;50.844;4.418;2023-04-19T08:04:09;13.50;99.90
22337;DHT22;14992;50.844;4.418;2023-04-19T08:06:39;13.40;99.90
22337;DHT22;14992;50.844;4.418;2023-04-19T08:09:08;13.30;99.90
22337;DHT22;14992;50.844;4.418;2023-04-19T08:11:36;13.50;99.90
22337;DHT22;14992;50.844;4.418;2023-04-19T08:14:05;13.40;99.90
22337;DHT22;14992;50.844;4.418;2023-04-19T08:16:56;13.50;99.90
22337;DHT22;14992;50.844;4.418;2023-04-19T08:19:30;13.60;99.90
22337;DHT22;14992;50.844;4.418;2023-04-19T08:21:59;13.80;99.90
22337;DHT22;14992;50.844;4.418;2023-04-19T08:24:29;14.00;99.90
22337;DHT22;14992;50.844;4.418;2023-04-19T08:26:58;14.20;99.90
22337;DHT22;14992;50.844;4.418;2023-04-19T08:29:28;14.10;99.90
22337;DHT22;14992;50.844;4.418;2023-04-19T08:31:58;14.20;99.90
22337;DHT22;14992;50.844;4.418;2023-04-19T08:34:28;14.40;99.90
22337;DHT22;14992;50.844;4.418;2023-04-19T08:36:57;14.60;99.90
22337;DHT22;14992;50.844;4.418;2023-04-19T08:39:31;14.50;99.90
22337;DHT22;14992;50.844;4.418;2023-04-19T08:42:03;14.60;99.90
22337;DHT22;14992;50.844;4.418;2023-04-19T08:44:45;14.70;99.90
22337;DHT22;14992;50.844;4.418;2023-04-19T08:47:35;14.90;99.90
22337;DHT22;14992;50.844;4.418;2023-04-19T08:50:19;15.00;99.90
22337;DHT22;14992;50.844;4.418;2023-04-19T08:53:01;15.10;99.90
22337;DHT22;14992;50.844;4.418;2023-04-19T08:55:32;15.00;99.90
22337;DHT22;14992;50.844;4.418;2023-04-19T08:58:02;14.90;99.90
22337;DHT22;14992;50.844;4.418;2023-04-19T09:00:39;14.80;99.90
22337;DHT22;14992;50.844;4.418;2023-04-19T09:03:09;14.90;99.90
22337;DHT22;14992;50.844;4.418;2023-04-19T09:05:41;14.90;99.90
22337;DHT22;14992;50.844;4.418;2023-04-19T09:08:21;14.90;99.90
22337;DHT22;14992;50.844;4.418;2023-04-19T09:10:55;14.90;99.90
22337;DHT22;14992;50.844;4.418;2023-04-19T09:13:24;15.00;99.90
22337;DHT22;14992;50.844;4.418;2023-04-19T09:15:54;15.10;99.90
22337;DHT22;14992;50.844;4.418;2023-04-19T09:18:25;15.40;99.90
22337;DHT22;14992;50.844;4.418;2023-04-19T09:20:58;15.70;99.90
22337;DHT22;14992;50.844;4.418;2023-04-19T09:23:27;15.80;99.90
22337;DHT22;14992;50.844;4.418;2023-04-19T09:25:59;15.70;99.90
22337;DHT22;14992;50.844;4.418;2023-04-19T09:28:31;15.60;99.90
22337;DHT22;14992;50.844;4.418;2023-04-19T09:31:10;15.80;99.90
22337;DHT22;14992;50.844;4.418;2023-04-19T09:34:13;16.10;99.90
22337;DHT22;14992;50.844;4.418;2023-04-19T09:36:42;16.60;99.90
22337;DHT22;14992;50.844;4.418;2023-04-19T09:39:13;16.70;99.90
22337;DHT22;14992;50.844;4.418;2023-04-19T09:41:52;16.60;99.90
22337;DHT22;14992;50.844;4.418;2023-04-19T09:44:21;16.60;99.90
22337;DHT22;14992;50.844;4.418;2023-04-19T09:46:53;16.90;99.90
22337;DHT22;14992;50.844;4.418;2023-04-19T09:49:24;16.80;99.90
22337;DHT22;14992;50.844;4.418;2023-04-19T09:52:14;16.80;99.90
22337;DHT22;14992;50.844;4.418;2023-04-19T09:54:43;17.10;99.90
22337;DHT22;14992;50.844;4.418;2023-04-19T09:57:13;17.00;99.90
22337;DHT22;14992;50.844;4.418;2023-04-19T09:59:42;16.70;99.90
22337;DHT22;14992;50.844;4.418;2023-04-19T10:02:12;16.20;99.90
22337;DHT22;14992;50.844;4.418;2023-04-19T10:04:44;15.80;99.90
22337;DHT22;14992;50.844;4.418;2023-04-19T10:07:35;15.60;99.90
22337;DHT22;14992;50.844;4.418;2023-04-19T10:10:06;15.40;99.90
22337;DHT22;14992;50.844;4.418;2023-04-19T10:12:50;15.40;99.90
22337;DHT22;14992;50.844;4.418;2023-04-19T10:15:23;15.40;99.90
22337;DHT22;14992;50.844;4.418;2023-04-19T10:18:09;15.40;99.90
22337;DHT22;14992;50.844;4.418;2023-04-19T10:20:46;15.40;99.90
22337;DHT22;14992;50.844;4.418;2023-04-19T10:23:18;15.40;99.90
22337;DHT22;14992;50.844;4.418;2023-04-19T10:25:47;15.40;99.90
22337;DHT22;14992;50.844;4.418;2023-04-19T10:28:16;15.60;99.90
22337;DHT22;14992;50.844;4.418;2023-04-19T10:30:52;15.80;99.90
22337;DHT22;14992;50.844;4.418;2023-04-19T10:33:25;15.90;99.90
22337;DHT22;14992;50.844;4.418;2023-04-19T10:35:58;16.00;99.90
22337;DHT22;14992;50.844;4.418;2023-04-19T10:38:38;16.10;99.90
22337;DHT22;14992;50.844;4.418;2023-04-19T10:41:08;16.40;99.90
22337;DHT22;14992;50.844;4.418;2023-04-19T10:43:45;16.60;99.90
22337;DHT22;14992;50.844;4.418;2023-04-19T10:46:16;16.70;99.90
22337;DHT22;14992;50.844;4.418;2023-04-19T10:49:04;16.90;99.90
22337;DHT22;14992;50.844;4.418;2023-04-19T10:51:36;17.00;99.90
22337;DHT22;14992;50.844;4.418;2023-04-19T10:54:06;16.80;99.90
22337;DHT22;14992;50.844;4.418;2023-04-19T10:57:00;16.60;99.90
22337;DHT22;14992;50.844;4.418;2023-04-19T10:59:31;16.60;99.90
22337;DHT22;14992;50.844;4.418;2023-04-19T11:02:01;16.70;99.90
22337;DHT22;14992;50.844;4.418;2023-04-19T11:07:41;17.20;99.90
22337;DHT22;14992;50.844;4.418;2023-04-19T11:10:10;16.70;99.90
22337;DHT22;14992;50.844;4.418;2023-04-19T11:12:43;16.50;99.90
22337;DHT22;14992;50.844;4.418;2023-04-19T11:15:12;16.50;99.90
22337;DHT22;14992;50.844;4.418;2023-04-19T11:17:41;16.30;99.90
22337;DHT22;14992;50.844;4.418;2023-04-19T11:20:11;16.00;99.90
22337;DHT22;14992;50.844;4.418;2023-04-19T11:22:44;16.10;99.90
22337;DHT22;14992;50.844;4.418;2023-04-19T11:25:15;16.10;99.90
22337;DHT22;14992;50.844;4.418;2023-04-19T11:27:47;16.10;99.90
22337;DHT22;14992;50.844;4.418;2023-04-19T11:30:17;16.00;99.90
22337;DHT22;14992;50.844;4.418;2023-04-19T11:32:49;16.00;99.90
22337;DHT22;14992;50.844;4.418;2023-04-19T11:35:20;16.00;99.90
22337;DHT22;14992;50.844;4.418;2023-04-19T11:37:51;16.30;99.90
22337;DHT22;14992;50.844;4.418;2023-04-19T11:40:23;16.50;99.90
22337;DHT22;14992;50.844;4.418;2023-04-19T11:42:54;16.70;99.90
22337;DHT22;14992;50.844;4.418;2023-04-19T11:45:25;16.80;99.90
22337;DHT22;14992;50.844;4.418;2023-04-19T11:48:00;17.00;99.90
22337;DHT22;14992;50.844;4.418;2023-04-19T11:50:31;17.10;99.90
22337;DHT22;14992;50.844;4.418;2023-04-19T11:53:11;17.10;99.90
22337;DHT22;14992;50.844;4.418;2023-04-19T11:55:42;17.40;99.90
22337;DHT22;14992;50.844;4.418;2023-04-19T11:58:28;17.40;99.90
22337;DHT22;14992;50.844;4.418;2023-04-19T12:01:04;17.60;99.90
22337;DHT22;14992;50.844;4.418;2023-04-19T12:03:34;17.70;99.90
22337;DHT22;14992;50.844;4.418;2023-04-19T12:06:04;17.80;99.90
22337;DHT22;14992;50.844;4.418;2023-04-19T12:08:42;17.50;99.90
22337;DHT22;14992;50.844;4.418;2023-04-19T12:11:12;17.40;99.90
22337;DHT22;14992;50.844;4.418;2023-04-19T12:13:41;17.20;99.90
22337;DHT22;14992;50.844;4.418;2023-04-19T12:16:11;17.30;99.90
22337;DHT22;14992;50.844;4.418;2023-04-19T12:18:45;17.30;99.90
22337;DHT22;14992;50.844;4.418;2023-04-19T12:21:26;17.20;99.90
22337;DHT22;14992;50.844;4.418;2023-04-19T12:23:58;17.20;99.90
22337;DHT22;14992;50.844;4.418;2023-04-19T12:26:27;17.30;99.90
22337;DHT22;14992;50.844;4.418;2023-04-19T12:28:58;17.50;99.60
22337;DHT22;14992;50.844;4.418;2023-04-19T12:31:27;17.40;98.80
22337;DHT22;14992;50.844;4.418;2023-04-19T12:33:58;17.30;97.40
22337;DHT22;14992;50.844;4.418;2023-04-19T12:36:27;17.10;96.60
22337;DHT22;14992;50.844;4.418;2023-04-19T12:38:58;17.10;95.20
22337;DHT22;14992;50.844;4.418;2023-04-19T12:41:27;16.90;95.70
22337;DHT22;14992;50.844;4.418;2023-04-19T12:43:56;17.10;93.60
22337;DHT22;14992;50.844;4.418;2023-04-19T12:46:25;17.30;93.60
22337;DHT22;14992;50.844;4.418;2023-04-19T12:48:54;17.50;92.50
22337;DHT22;14992;50.844;4.418;2023-04-19T12:51:23;17.40;92.60
22337;DHT22;14992;50.844;4.418;2023-04-19T12:53:52;17.40;91.60
22337;DHT22;14992;50.844;4.418;2023-04-19T12:56:23;17.30;90.60
22337;DHT22;14992;50.844;4.418;2023-04-19T12:58:52;17.10;89.50
22337;DHT22;14992;50.844;4.418;2023-04-19T13:01:21;17.10;90.10
22337;DHT22;14992;50.844;4.418;2023-04-19T13:03:51;17.10;89.00
22337;DHT22;14992;50.844;4.418;2023-04-19T13:06:23;17.10;88.50
22337;DHT22;14992;50.844;4.418;2023-04-19T13:08:52;16.90;87.40
22337;DHT22;14992;50.844;4.418;2023-04-19T13:11:27;16.90;89.40
22337;DHT22;14992;50.844;4.418;2023-04-19T13:13:57;16.90;88.50
22337;DHT22;14992;50.844;4.418;2023-04-19T13:16:26;16.80;87.10
22337;DHT22;14992;50.844;4.418;2023-04-19T13:18:55;16.90;87.50
22337;DHT22;14992;50.844;4.418;2023-04-19T13:21:26;17.00;86.40
22337;DHT22;14992;50.844;4.418;2023-04-19T13:23:57;16.90;82.20
22337;DHT22;14992;50.844;4.418;2023-04-19T13:26:27;16.80;79.40
22337;DHT22;14992;50.844;4.418;2023-04-19T13:28:56;16.80;78.60
22337;DHT22;14992;50.844;4.418;2023-04-19T13:31:25;16.70;76.90
22337;DHT22;14992;50.844;4.418;2023-04-19T13:33:55;16.60;76.40
22337;DHT22;14992;50.844;4.418;2023-04-19T13:36:24;16.50;75.00
22337;DHT22;14992;50.844;4.418;2023-04-19T13:38:54;16.40;73.70
22337;DHT22;14992;50.844;4.418;2023-04-19T13:41:23;16.40;74.70
22337;DHT22;14992;50.844;4.418;2023-04-19T13:43:53;16.50;73.70
22337;DHT22;14992;50.844;4.418;2023-04-19T13:46:22;16.50;72.50
22337;DHT22;14992;50.844;4.418;2023-04-19T13:48:51;16.40;72.80
22337;DHT22;14992;50.844;4.418;2023-04-19T13:51:20;16.50;73.50
22337;DHT22;14992;50.844;4.418;2023-04-19T13:53:49;16.60;72.50
22337;DHT22;14992;50.844;4.418;2023-04-19T13:56:18;16.50;72.10
22337;DHT22;14992;50.844;4.418;2023-04-19T13:58:48;16.40;69.60
22337;DHT22;14992;50.844;4.418;2023-04-19T14:01:24;16.50;67.40
22337;DHT22;14992;50.844;4.418;2023-04-19T14:03:54;16.50;64.80
22337;DHT22;14992;50.844;4.418;2023-04-19T14:06:23;16.60;63.50
22337;DHT22;14992;50.844;4.418;2023-04-19T14:08:53;16.70;63.10
22337;DHT22;14992;50.844;4.418;2023-04-19T14:11:21;16.80;63.80
22337;DHT22;14992;50.844;4.418;2023-04-19T14:13:51;16.60;61.70
22337;DHT22;14992;50.844;4.418;2023-04-19T14:16:22;16.50;60.60
22337;DHT22;14992;50.844;4.418;2023-04-19T14:18:52;16.50;59.60
22337;DHT22;14992;50.844;4.418;2023-04-19T14:21:21;16.40;58.50
22337;DHT22;14992;50.844;4.418;2023-04-19T14:23:50;16.40;58.70
22337;DHT22;14992;50.844;4.418;2023-04-19T14:26:18;16.40;59.10
22337;DHT22;14992;50.844;4.418;2023-04-19T14:28:48;16.40;58.20
22337;DHT22;14992;50.844;4.418;2023-04-19T14:31:16;16.60;58.30
22337;DHT22;14992;50.844;4.418;2023-04-19T14:33:47;16.70;57.00
22337;DHT22;14992;50.844;4.418;2023-04-19T14:36:16;16.70;57.10
22337;DHT22;14992;50.844;4.418;2023-04-19T14:38:45;16.50;58.00
22337;DHT22;14992;50.844;4.418;2023-04-19T14:41:14;16.40;58.30
22337;DHT22;14992;50.844;4.418;2023-04-19T14:43:43;16.40;58.00
22337;DHT22;14992;50.844;4.418;2023-04-19T14:46:13;16.30;58.00
22337;DHT22;14992;50.844;4.418;2023-04-19T14:48:42;16.30;58.80
22337;DHT22;14992;50.844;4.418;2023-04-19T14:51:12;16.40;57.80
22337;DHT22;14992;50.844;4.418;2023-04-19T14:53:41;16.50;59.00
22337;DHT22;14992;50.844;4.418;2023-04-19T14:56:10;16.50;58.70
22337;DHT22;14992;50.844;4.418;2023-04-19T14:58:38;16.40;58.40
22337;DHT22;14992;50.844;4.418;2023-04-19T15:01:11;16.40;58.70
22337;DHT22;14992;50.844;4.418;2023-04-19T15:03:40;16.40;58.90
22337;DHT22;14992;50.844;4.418;2023-04-19T15:06:10;16.40;58.70
22337;DHT22;14992;50.844;4.418;2023-04-19T15:08:40;16.50;59.80
22337;DHT22;14992;50.844;4.418;2023-04-19T15:11:09;16.60;58.90
22337;DHT22;14992;50.844;4.418;2023-04-19T15:13:38;16.60;58.80
22337;DHT22;14992;50.844;4.418;2023-04-19T15:16:08;16.50;58.80
22337;DHT22;14992;50.844;4.418;2023-04-19T15:18:37;16.40;59.40
22337;DHT22;14992;50.844;4.418;2023-04-19T15:21:06;16.30;59.30
22337;DHT22;14992;50.844;4.418;2023-04-19T15:23:35;16.30;58.90
22337;DHT22;14992;50.844;4.418;2023-04-19T15:26:05;16.20;58.40
22337;DHT22;14992;50.844;4.418;2023-04-19T15:28:34;16.30;58.00
22337;DHT22;14992;50.844;4.418;2023-04-19T15:31:05;16.40;57.40
22337;DHT22;14992;50.844;4.418;2023-04-19T15:33:35;16.50;57.10
22337;DHT22;14992;50.844;4.418;2023-04-19T15:36:04;16.40;56.30
22337;DHT22;14992;50.844;4.418;2023-04-19T15:38:34;16.40;55.90
22337;DHT22;14992;50.844;4.418;2023-04-19T15:41:04;16.40;55.70
22337;DHT22;14992;50.844;4.418;2023-04-19T15:43:33;16.30;55.20
22337;DHT22;14992;50.844;4.418;2023-04-19T15:46:02;16.20;54.70
22337;DHT22;14992;50.844;4.418;2023-04-19T15:48:31;16.30;54.80
22337;DHT22;14992;50.844;4.418;2023-04-19T15:51:01;16.40;55.20
22337;DHT22;14992;50.844;4.418;2023-04-19T15:53:31;16.40;54.80
22337;DHT22;14992;50.844;4.418;2023-04-19T15:56:00;16.40;54.40
22337;DHT22;14992;50.844;4.418;2023-04-19T15:58:31;16.30;53.60
22337;DHT22;14992;50.844;4.418;2023-04-19T16:00:59;16.30;53.80